Latest Weather Observations for Larapuna (Eddystone Point)

IDT60801

Issued at 10:02 am EST Wednesday 24 May 2017 (issued every 30 minutes, with the page automatically refreshed every 10 minutes)

About weather observations | Map of weather stations | Latest weather observations for TAS | Other Formats
Station Details ID: 092045 Name: LARAPUNA (EDDYSTONE POINT) Lat: -40.99 Lon: 148.35 Height: 19.7 m
Data from the previous 72 hours. | See also: Recent months at Larapuna (Eddystone Point)
Date/Time
EST
Temp
°C
App
Temp
°C
Dew
Point
°C
Rel
Hum
%
Delta-T
°C
Wind Press
QNH
hPa
Press
MSL
hPa
Rain since
9am
mm
Dir  Spd
km/h
Gust
km/h
Spd
kts
Gust
kts
24/10:00am 12.7 8.6 10.2 85 1.3 NW 22 32 12 17 1007.8 1007.8 0.0
24/09:30am 13.6 9.5 11.5 87 1.1 NW 24 44 13 24 1007.9 1007.9 0.0
24/09:00am 13.1 9.8 11.5 90 0.9 NW 20 24 11 13 1008.0 1008.0 1.2
24/08:30am 13.0 9.8 11.4 90 0.8 NNW 19 26 10 14 1008.1 1008.1 1.2
24/08:00am 12.2 8.8 10.6 90 0.8 NW 19 24 10 13 1008.2 1008.2 1.2
24/07:30am 12.0 8.4 10.4 90 0.8 NW 20 28 11 15 1008.2 1008.2 1.2
24/07:00am 12.0 7.7 10.6 91 0.7 NW 24 32 13 17 1008.2 1008.2 1.2
24/06:30am 13.4 10.3 12.1 92 0.7 NW 20 35 11 19 1008.4 1008.4 0.6
24/06:00am 13.8 11.4 12.7 93 0.6 NNW 17 22 9 12 1008.3 1008.3 0.6
24/05:30am 13.3 10.8 12.2 93 0.6 NNW 17 20 9 11 1008.2 1008.2 0.6
24/05:00am 12.8 10.9 11.7 93 0.6 NW 13 17 7 9 1008.1 1008.1 0.6
24/04:30am 13.3 11.1 12.0 92 0.7 NNW 15 20 8 11 1008.5 1008.5 0.6
24/04:00am 13.4 11.2 12.1 92 0.7 NNW 15 20 8 11 1008.9 1008.9 0.6
24/03:30am 13.7 11.7 12.6 93 0.6 NNW 15 20 8 11 1008.9 1008.9 0.6
24/03:00am 13.6 12.7 12.5 93 0.6 N 9 13 5 7 1009.0 1009.0 0.6
24/02:30am 12.8 10.9 11.7 93 0.6 NW 13 15 7 8 1009.4 1009.4 0.6
24/02:00am 12.7 11.1 11.4 92 0.7 NNW 11 15 6 8 1009.7 1009.7 0.6
24/01:30am 12.5 11.6 11.2 92 0.7 N 7 11 4 6 1010.2 1010.2 0.6
24/01:00am 12.5 10.0 11.2 92 0.7 NW 15 19 8 10 1010.5 1010.5 0.4
24/12:30am 13.0 10.3 11.7 92 0.7 NNW 17 22 9 12 1010.8 1010.8 0.4
24/12:00am 13.0 10.3 11.6 91 0.7 NW 17 22 9 12 1011.3 1011.3 0.4
 
Date/Time
EST
Temp
°C
App
Temp
°C
Dew
Point
°C
Rel
Hum
%
Delta-T
°C
Wind Press
QNH
hPa
Press
MSL
hPa
Rain since
9am
mm
Dir  Spd
km/h
Gust
km/h
Spd
kts
Gust
kts
23/11:30pm 13.4 10.4 12.0 91 0.8 N 19 24 10 13 1011.4 1011.4 0.4
23/11:00pm 12.9 10.1 11.5 91 0.7 NNW 17 20 9 11 1011.8 1011.8 0.4
23/10:30pm 12.9 10.5 11.3 90 0.8 NNW 15 20 8 11 1012.0 1012.0 0.4
23/10:00pm 13.1 11.0 11.3 89 1.0 NW 13 17 7 9 1012.6 1012.6 0.4
23/09:30pm 13.5 11.6 11.9 90 0.9 NW 13 15 7 8 1013.0 1013.0 0.4
23/09:00pm 13.4 11.9 11.8 90 0.9 NW 11 15 6 8 1013.2 1013.2 0.4
23/08:30pm 13.5 11.2 11.9 90 0.9 NW 15 19 8 10 1013.7 1013.7 0.4
23/08:00pm 13.8 11.6 12.0 89 1.0 NW 15 20 8 11 1013.9 1013.9 0.4
23/07:30pm 14.2 12.0 12.1 87 1.1 NW 15 19 8 10 1014.2 1014.2 0.2
23/07:00pm 14.6 12.8 12.1 85 1.4 NW 13 17 7 9 1013.9 1013.9 0.0
23/06:30pm 14.7 12.9 12.0 84 1.5 NW 13 17 7 9 1013.9 1013.9 0.0
23/06:00pm 14.8 12.2 12.1 84 1.5 WNW 17 26 9 14 1014.0 1014.0 0.0
23/05:30pm 15.1 13.1 12.6 85 1.4 NNW 15 20 8 11 1013.9 1013.9 0.0
23/05:00pm 15.3 13.4 11.9 80 1.8 NNW 13 15 7 8 1013.8 1013.8 0.0
23/04:30pm 15.4 12.5 11.0 75 2.3 NW 17 20 9 11 1013.6 1013.6 0.0
23/04:00pm 16.0 12.4 10.5 70 2.9 NW 20 22 11 12 1013.5 1013.5 0.0
23/03:30pm 16.5 12.2 10.6 68 3.1 NW 24 30 13 16 1013.5 1013.5 0.0
23/03:00pm 17.8 13.1 10.7 63 3.8 NW 26 33 14 18 1013.5 1013.5 0.0
23/02:30pm 18.1 13.9 11.2 64 3.7 NW 24 33 13 18 1013.8 1013.8 0.0
23/02:00pm 17.6 14.3 11.6 68 3.3 NW 20 26 11 14 1014.1 1014.1 0.0
23/01:30pm 17.4 13.4 11.9 70 3.0 NW 24 37 13 20 1014.3 1014.3 0.0
23/01:00pm 16.7 13.4 12.8 78 2.2 NNW 22 26 12 14 1014.4 1014.4 0.0
23/12:30pm 16.1 14.5 13.9 87 1.2 N 15 20 8 11 1014.9 1014.9 0.0
23/12:00pm 15.9 13.3 13.9 88 1.1 NNW 20 26 11 14 1015.4 1015.4 0.0
23/11:30am 16.4 14.9 15.3 93 0.6 NNW 17 20 9 11 1015.6 1015.6 0.0
23/11:00am 15.2 13.7 14.2 94 0.6 N 15 20 8 11 1016.0 1016.0 0.0
23/10:30am 15.0 13.4 14.0 94 0.6 NNW 15 19 8 10 1016.2 1016.2 0.0
23/10:00am 14.5 13.1 13.5 94 0.6 NW 13 17 7 9 1016.5 1016.5 0.0
23/09:30am 14.0 12.9 13.1 94 0.5 NW 11 13 6 7 1016.7 1016.7 0.0
23/09:00am 13.6 12.4 12.7 94 0.5 NW 11 13 6 7 1016.9 1016.9 0.4
23/08:30am 13.6 12.4 12.7 94 0.5 NNW 11 13 6 7 1016.7 1016.7 0.4
23/08:00am 13.6 12.7 12.7 94 0.5 N 9 11 5 6 1016.9 1016.9 0.4
23/07:30am 13.6 13.1 12.7 94 0.5 N 7 7 4 4 1017.0 1017.0 0.4
23/07:00am 13.7 13.4 12.8 94 0.5 NNW 6 7 3 4 1017.0 1017.0 0.4
23/06:30am 13.4 14.2 12.5 94 0.5 CALM 0 0 0 0 1017.0 1017.0 0.4
23/06:00am 13.4 14.2 12.5 94 0.5 CALM 0 0 0 0 1016.8 1016.8 0.4
23/05:30am 13.5 14.3 12.6 94 0.5 CALM 0 0 0 0 1017.0 1017.0 0.4
23/05:00am 13.4 12.5 12.5 94 0.5 W 9 11 5 6 1017.1 1017.1 0.2
23/04:30am 13.1 12.1 12.2 94 0.5 WSW 9 11 5 6 1017.2 1017.2 0.2
23/04:00am 12.9 11.8 12.0 94 0.5 WSW 9 9 5 5 1017.1 1017.1 0.2
23/03:30am 13.1 12.0 12.0 93 0.6 NNW 9 11 5 6 1017.2 1017.2 0.2
23/03:00am 14.7 14.2 13.7 94 0.6 NNE 9 11 5 6 1017.0 1017.0 0.2
23/02:30am 14.3 12.5 13.3 94 0.6 NE 15 19 8 10 1016.9 1016.9 0.2
23/02:00am 13.3 12.7 12.4 94 0.5 N 7 9 4 5 1017.5 1017.5 0.2
23/01:30am 13.2 12.2 12.3 94 0.5 NNW 9 9 5 5 1018.3 1018.3 0.2
23/01:00am 13.3 12.0 12.4 94 0.5 N 11 13 6 7 1018.7 1018.7 0.2
23/12:30am 13.4 12.5 12.5 94 0.5 N 9 11 5 6 1018.7 1018.7 0.2
23/12:00am 13.3 12.0 12.4 94 0.5 N 11 13 6 7 1019.2 1019.2 0.2
 
Date/Time
EST
Temp
°C
App
Temp
°C
Dew
Point
°C
Rel
Hum
%
Delta-T
°C
Wind Press
QNH
hPa
Press
MSL
hPa
Rain since
9am
mm
Dir  Spd
km/h
Gust
km/h
Spd
kts
Gust
kts
22/11:30pm 13.2 12.1 12.1 93 0.6 NNW 9 11 5 6 1019.4 1019.4 0.2
22/11:00pm 13.4 12.5 12.5 94 0.5 NNW 9 11 5 6 1019.5 1019.5 0.2
22/10:30pm 13.3 12.0 12.4 94 0.5 NNW 11 13 6 7 1019.8 1019.8 0.2
22/10:00pm 13.1 11.3 12.0 93 0.6 NW 13 13 7 7 1020.0 1020.0 0.0
22/09:30pm 13.6 11.9 12.5 93 0.6 NW 13 15 7 8 1019.8 1019.8 0.0
22/09:00pm 13.8 12.2 12.7 93 0.6 NW 13 17 7 9 1019.8 1019.8 0.0
22/08:30pm 14.0 12.1 12.9 93 0.6 NW 15 19 8 10 1019.5 1019.5 0.0
22/08:00pm 13.8 11.4 12.7 93 0.6 NW 17 24 9 13 1019.4 1019.4 0.0
22/07:30pm 13.8 11.4 12.5 92 0.7 NW 17 20 9 11 1019.5 1019.5 0.0
22/07:00pm 13.6 11.5 12.3 92 0.7 NW 15 19 8 10 1019.4 1019.4 0.0
22/06:30pm 13.7 11.2 12.3 91 0.8 NW 17 20 9 11 1019.4 1019.4 0.0
22/06:00pm 14.3 11.6 12.9 91 0.8 NW 19 24 10 13 1019.1 1019.1 0.0
22/05:30pm 15.1 12.0 13.5 90 0.9 NNW 22 26 12 14 1019.0 1019.0 0.0
22/05:00pm 15.4 12.6 13.1 86 1.3 NNW 20 26 11 14 1018.8 1018.8 0.0
22/04:30pm 16.0 13.2 12.6 80 1.9 NW 19 24 10 13 1018.6 1018.6 0.0
22/04:00pm 16.9 13.9 12.4 75 2.5 NW 20 26 11 14 1018.7 1018.7 0.0
22/03:30pm 17.4 13.2 12.3 72 2.8 NW 26 33 14 18 1018.6 1018.6 0.0
22/03:00pm 17.8 13.3 12.7 72 2.8 NW 28 35 15 19 1018.6 1018.6 0.0
22/02:30pm 18.3 14.3 13.0 71 3.0 NW 26 35 14 19 1018.6 1018.6 0.0
22/02:00pm 18.6 15.0 13.0 70 3.1 NW 24 32 13 17 1018.7 1018.7 0.0
22/01:30pm 18.2 14.1 12.6 70 3.1 NW 26 32 14 17 1018.8 1018.8 0.0
22/01:00pm 18.4 14.8 13.1 71 3.0 NW 24 35 13 19 1019.0 1019.0 0.0
22/12:30pm 16.9 14.3 13.8 82 1.8 N 20 28 11 15 1019.2 1019.2 0.0
22/12:00pm 16.5 13.6 14.0 85 1.4 N 22 28 12 15 1019.7 1019.7 0.0
22/11:30am 15.9 12.6 12.8 82 1.7 N 22 26 12 14 1020.2 1020.2 0.0
22/11:00am 16.3 13.4 13.0 81 1.8 N 20 24 11 13 1020.5 1020.5 0.0
22/10:30am 16.6 13.9 12.8 78 2.1 NW 19 24 10 13 1020.7 1020.7 0.0
22/10:00am 15.7 12.9 12.5 81 1.8 WNW 19 30 10 16 1020.9 1020.9 0.0
22/09:30am 15.2 13.5 12.5 84 1.5 NW 13 20 7 11 1021.1 1021.1 0.0
22/09:00am 14.1 13.4 12.0 87 1.1 NW 7 9 4 5 1021.1 1021.1 0.0
22/08:30am 13.1 11.8 11.3 89 1.0 NW 9 13 5 7 1021.0 1021.0 0.0
22/08:00am 12.6 10.8 11.0 90 0.8 NW 11 15 6 8 1020.8 1020.8 0.0
22/07:30am 12.4 10.6 10.8 90 0.8 NNW 11 13 6 7 1020.6 1020.6 0.0
22/07:00am 12.4 10.2 10.8 90 0.8 NW 13 19 7 10 1020.3 1020.3 0.0
22/06:30am 12.3 10.5 10.7 90 0.8 NW 11 17 6 9 1020.2 1020.2 0.0
22/06:00am 12.3 10.9 10.9 91 0.7 NW 9 13 5 7 1019.9 1019.9 0.0
22/05:30am 12.6 11.3 11.2 91 0.7 NNW 9 13 5 7 1019.7 1019.7 0.0
22/05:00am 12.9 10.8 11.3 90 0.8 NNW 13 17 7 9 1019.5 1019.5 0.0
22/04:30am 12.9 11.2 11.3 90 0.8 NNW 11 15 6 8 1019.4 1019.4 0.0
22/04:00am 12.9 11.6 11.3 90 0.8 NNW 9 13 5 7 1019.2 1019.2 0.0
22/03:30am 13.1 10.7 11.3 89 1.0 WNW 15 20 8 11 1019.1 1019.1 0.0
22/03:00am 13.3 10.9 11.5 89 1.0 NW 15 20 8 11 1018.9 1018.9 0.0
22/02:30am 13.3 12.6 11.5 89 1.0 NW 6 11 3 6 1019.1 1019.1 0.0
22/02:00am 13.4 9.8 11.8 90 0.9 WNW 22 32 12 17 1018.6 1018.6 0.0
22/01:30am 13.2 11.2 11.6 90 0.9 WNW 13 19 7 10 1018.6 1018.6 0.0
22/01:00am 13.4 9.5 12.0 91 0.8 WNW 24 30 13 16 1018.6 1018.6 0.0
22/12:30am 13.3 10.3 11.9 91 0.7 WNW 19 28 10 15 1018.6 1018.6 0.0
22/12:00am 13.2 11.7 11.8 91 0.7 NW 11 15 6 8 1018.8 1018.8 0.0
 
Date/Time
EST
Temp
°C
App
Temp
°C
Dew
Point
°C
Rel
Hum
%
Delta-T
°C
Wind Press
QNH
hPa
Press
MSL
hPa
Rain since
9am
mm
Dir  Spd
km/h
Gust
km/h
Spd
kts
Gust
kts
21/11:30pm 13.4 11.2 12.0 91 0.8 NW 15 17 8 9 1018.8 1018.8 0.0
21/11:00pm 13.6 10.6 12.0 90 0.9 WNW 19 24 10 13 1018.6 1018.6 0.0
21/10:30pm 13.8 11.3 12.2 90 0.9 WNW 17 24 9 13 1018.6 1018.6 0.0
21/10:00pm 13.9 12.2 12.3 90 0.9 NW 13 19 7 10 1018.6 1018.6 0.0
21/09:30pm 14.1 11.7 12.5 90 0.9 NW 17 22 9 12 1018.8 1018.8 0.0
21/09:00pm 14.3 11.9 12.7 90 0.9 NW 17 22 9 12 1018.6 1018.6 0.0
21/08:30pm 14.6 13.0 12.8 89 1.0 NNW 13 19 7 10 1018.3 1018.3 0.0
21/08:00pm 14.5 12.1 12.5 88 1.1 NW 17 20 9 11 1018.1 1018.1 0.0
21/07:30pm 14.5 12.0 12.4 87 1.1 WNW 17 22 9 12 1018.2 1018.2 0.0
21/07:00pm 14.6 9.1 12.5 87 1.1 NW 33 39 18 21 1017.5 1017.5 0.0
21/06:30pm 14.6 10.7 12.1 85 1.4 NW 24 32 13 17 1017.3 1017.3 0.0
21/06:00pm 14.3 11.6 11.8 85 1.3 WNW 17 24 9 13 1017.2 1017.2 0.0
21/05:30pm 14.6 11.4 11.9 84 1.5 NW 20 26 11 14 1017.0 1017.0 0.0
21/05:00pm 14.8 10.8 11.8 82 1.6 WNW 24 33 13 18 1016.4 1016.4 0.0
21/04:30pm 15.6 11.9 11.4 76 2.3 NW 22 30 12 16 1016.2 1016.2 0.0
21/04:00pm 16.2 10.4 11.6 74 2.5 WNW 33 44 18 24 1015.9 1015.9 0.0
21/03:33pm 16.9 11.4 11.8 72 2.8 WNW 32 50 17 27 1015.2 1015.2 0.0
21/03:30pm 17.0 11.9 11.9 72 2.8 WNW 30 43 16 23 1015.1 1015.1 0.0
21/03:00pm 17.6 12.2 12.1 70 3.0 WNW 32 39 17 21 1014.9 1014.9 0.0
21/02:30pm 17.2 12.4 11.7 70 3.0 WNW 28 41 15 22 1015.0 1015.0 0.0
21/02:00pm 18.2 13.8 11.7 66 3.6 WNW 26 35 14 19 1014.9 1014.9 0.0
21/01:30pm 18.1 14.1 11.7 66 3.5 WNW 24 37 13 20 1014.9 1014.9 0.0
21/01:00pm 17.7 12.1 11.5 67 3.4 WNW 32 44 17 24 1014.9 1014.9 0.0
21/12:30pm 17.3 11.0 11.1 67 3.3 WNW 35 44 19 24 1014.9 1014.9 0.0
21/12:00pm 17.5 12.0 11.8 69 3.1 WNW 32 44 17 24 1015.1 1015.1 0.0
21/11:39am 17.2 12.3 11.2 68 3.2 W 28 46 15 25 1015.5 1015.5 0.0
21/11:30am 17.1 11.8 11.2 68 3.2 W 30 44 16 24 1015.4 1015.4 0.0
21/11:00am 17.2 14.5 11.7 70 3.0 W 17 28 9 15 1015.7 1015.7 0.0
21/10:30am 16.5 12.3 11.0 70 2.9 W 24 33 13 18 1015.7 1015.7 0.0

Other Formats:

Comma delimited format used in spreadsheet applications
http://www.bom.gov.au/fwo/IDT60801/IDT60801.94983.axf

JavaScript Object Notation format (JSON) in row-major order
http://www.bom.gov.au/fwo/IDT60801/IDT60801.94983.json